Time;durP1;ratioP1;P1;durP2;ratioP2;P2;SDS_P1;SDS_P2;PMS_P1;PMS_P2;Temp;Humidity;BMP_temperature;BMP_pressure;BME280_temperature;BME280_humidity;BME280_pressure;Samples;Min_cycle;Max_cycle;Signal;HPM_P1;HPM_P2
2022/06/07 00:01:37;;;;;;;2.90;2.13;;;;;;;;;;4969078;28;20352;-68
2022/06/07 00:04:04;;;;;;;3.38;2.13;;;;;;;;;;4969105;28;20425;-68
2022/06/07 00:06:30;;;;;;;4.15;2.05;;;;;;;;;;4969431;28;20514;-68
2022/06/07 00:08:55;;;;;;;2.67;2.00;;;;;;;;;;4951376;28;20440;-68
2022/06/07 00:11:21;;;;;;;2.50;1.80;;;;;;;;;;4969724;28;20526;-68
2022/06/07 00:13:47;;;;;;;2.30;1.90;;;;;;;;;;4969488;28;20095;-68
2022/06/07 00:16:14;;;;;;;3.40;2.20;;;;;;;;;;4968758;28;20496;-68
2022/06/07 00:18:39;;;;;;;4.90;2.17;;;;;;;;;;4969082;28;20464;-69
2022/06/07 00:21:04;;;;;;;3.00;1.95;;;;;;;;;;4969192;28;20357;-69
2022/06/07 00:23:31;;;;;;;3.38;1.90;;;;;;;;;;4969836;28;20321;-68
2022/06/07 00:25:58;;;;;;;2.35;1.75;;;;;;;;;;4969685;28;20413;-69
2022/06/07 00:28:23;;;;;;;3.10;1.73;;;;;;;;;;4968984;28;20325;-68
2022/06/07 00:30:50;;;;;;;3.15;2.17;;;;;;;;;;4950974;28;20388;-68
2022/06/07 00:33:15;;;;;;;2.10;1.70;;;;;;;;;;4951700;28;20049;-69
2022/06/07 00:35:41;;;;;;;4.22;2.22;;;;;;;;;;4969186;28;20132;-69
2022/06/07 00:38:06;;;;;;;2.90;2.10;;;;;;;;;;4952343;28;20447;-68
2022/06/07 00:40:32;;;;;;;3.15;2.05;;;;;;;;;;4969160;28;20344;-69
2022/06/07 00:42:57;;;;;;;2.72;1.55;;;;;;;;;;4952355;28;20330;-68
2022/06/07 00:45:23;;;;;;;4.28;2.20;;;;;;;;;;4760444;28;5001708;-68
2022/06/07 00:47:49;;;;;;;4.15;2.40;;;;;;;;;;4963653;28;20436;-68
2022/06/07 00:50:39;;;;;;;3.67;1.98;;;;;;;;;;4947497;28;20476;-68
2022/06/07 00:53:05;;;;;;;2.38;1.83;;;;;;;;;;4949084;28;20034;-69
2022/06/07 00:55:30;;;;;;;3.17;2.13;;;;;;;;;;4947988;28;20445;-69
2022/06/07 00:57:56;;;;;;;3.55;2.00;;;;;;;;;;4949505;28;20491;-70
2022/06/07 01:00:23;;;;;;;2.50;2.00;;;;;;;;;;4950896;28;20428;-68
2022/06/07 01:02:50;;;;;;;3.92;1.80;;;;;;;;;;4967101;28;20443;-70
2022/06/07 01:05:16;;;;;;;3.47;2.22;;;;;;;;;;4969024;28;20030;-68
2022/06/07 01:10:44;;;;;;;3.38;2.17;;;;;;;;;;4968413;28;20440;-68
2022/06/07 01:13:10;;;;;;;3.42;2.20;;;;;;;;;;4970333;28;20320;-68
2022/06/07 01:15:36;;;;;;;3.28;2.10;;;;;;;;;;4971434;28;20410;-69
2022/06/07 01:18:02;;;;;;;4.25;2.50;;;;;;;;;;4971644;28;20411;-69
2022/06/07 01:20:28;;;;;;;3.17;2.33;;;;;;;;;;4970635;28;20409;-67
2022/06/07 01:22:54;;;;;;;4.40;2.40;;;;;;;;;;4971773;28;20471;-66
2022/06/07 01:25:20;;;;;;;4.70;2.53;;;;;;;;;;4970385;28;20421;-66
2022/06/07 01:27:45;;;;;;;3.42;2.40;;;;;;;;;;4970138;28;20420;-65
2022/06/07 01:30:11;;;;;;;4.70;2.40;;;;;;;;;;4972559;28;20432;-68
2022/06/07 01:32:37;;;;;;;3.35;2.30;;;;;;;;;;4974468;28;20498;-70
2022/06/07 01:35:03;;;;;;;6.75;2.33;;;;;;;;;;4995266;28;20379;-69
2022/06/07 01:37:28;;;;;;;3.78;2.67;;;;;;;;;;4992708;28;20439;-71
2022/06/07 01:42:38;;;;;;;4.78;2.40;;;;;;;;;;4991689;28;20458;-68
2022/06/07 01:45:04;;;;;;;4.78;3.25;;;;;;;;;;4991487;28;20385;-69
2022/06/07 01:47:31;;;;;;;4.85;2.80;;;;;;;;;;4991185;28;20021;-68
2022/06/07 01:49:57;;;;;;;5.32;2.58;;;;;;;;;;4990694;28;20112;-69
2022/06/07 01:52:26;;;;;;;5.32;3.00;;;;;;;;;;4991355;28;20029;-68
2022/06/07 01:54:54;;;;;;;3.65;2.75;;;;;;;;;;4989161;28;20451;-68
2022/06/07 01:57:20;;;;;;;5.13;3.00;;;;;;;;;;4991003;28;20467;-68
2022/06/07 01:59:46;;;;;;;4.97;2.58;;;;;;;;;;4990801;28;20492;-68
2022/06/07 02:02:11;;;;;;;3.53;2.65;;;;;;;;;;4990888;28;20394;-68
2022/06/07 02:04:38;;;;;;;5.25;2.50;;;;;;;;;;4989785;28;20396;-69
2022/06/07 02:07:05;;;;;;;4.28;2.50;;;;;;;;;;4989402;28;20118;-68
2022/06/07 02:09:31;;;;;;;5.38;2.80;;;;;;;;;;4990897;28;20427;-68
2022/06/07 02:11:56;;;;;;;4.45;2.78;;;;;;;;;;4990540;28;20458;-68
2022/06/07 02:14:21;;;;;;;3.97;2.97;;;;;;;;;;4992085;28;20459;-69
2022/06/07 02:16:47;;;;;;;4.60;2.90;;;;;;;;;;4990817;28;20348;-68
2022/06/07 02:19:12;;;;;;;4.68;2.78;;;;;;;;;;4990941;28;20059;-68
2022/06/07 02:21:40;;;;;;;4.38;2.60;;;;;;;;;;4992000;28;20099;-69
2022/06/07 02:24:06;;;;;;;3.75;2.55;;;;;;;;;;4990427;28;20370;-69
2022/06/07 02:26:41;;;;;;;6.13;2.92;;;;;;;;;;4990363;28;20098;-68
2022/06/07 02:29:11;;;;;;;5.15;3.30;;;;;;;;;;4989151;28;20037;-68
2022/06/07 02:31:41;;;;;;;4.72;2.70;;;;;;;;;;4988844;28;20432;-69
2022/06/07 02:34:07;;;;;;;4.03;2.78;;;;;;;;;;4988725;28;20472;-69
2022/06/07 02:36:33;;;;;;;5.43;2.95;;;;;;;;;;4989463;28;20541;-68
2022/06/07 02:38:58;;;;;;;4.43;2.75;;;;;;;;;;4990068;28;20483;-68
2022/06/07 02:41:26;;;;;;;4.15;2.70;;;;;;;;;;4989069;28;20511;-68
2022/06/07 02:43:52;;;;;;;8.52;2.60;;;;;;;;;;4990195;28;20100;-70
2022/06/07 02:46:17;;;;;;;4.43;2.70;;;;;;;;;;4991229;28;20380;-69
2022/06/07 02:48:43;;;;;;;4.50;2.58;;;;;;;;;;4990964;28;20425;-67
2022/06/07 02:51:08;;;;;;;4.68;3.28;;;;;;;;;;4990115;28;20517;-68
2022/06/07 02:53:33;;;;;;;5.95;2.80;;;;;;;;;;4991210;28;20025;-68
2022/06/07 02:55:59;;;;;;;4.03;2.72;;;;;;;;;;4988476;28;20360;-68
2022/06/07 02:58:25;;;;;;;5.68;2.85;;;;;;;;;;4989619;28;20102;-69
2022/06/07 03:00:50;;;;;;;3.92;2.60;;;;;;;;;;4989108;28;20048;-70
2022/06/07 03:03:16;;;;;;;3.70;2.60;;;;;;;;;;4989878;28;20349;-68
2022/06/07 03:05:41;;;;;;;5.13;3.20;;;;;;;;;;5004787;28;20574;-68
2022/06/07 03:08:07;;;;;;;5.35;2.90;;;;;;;;;;4989886;28;20475;-69
2022/06/07 03:10:32;;;;;;;4.35;2.63;;;;;;;;;;4990081;28;20033;-69
2022/06/07 03:12:58;;;;;;;3.50;2.70;;;;;;;;;;4988229;28;20348;-68
2022/06/07 03:15:23;;;;;;;7.32;2.70;;;;;;;;;;4989951;28;20440;-68
2022/06/07 03:17:48;;;;;;;4.43;2.53;;;;;;;;;;4990006;28;20352;-68
2022/06/07 03:20:14;;;;;;;5.38;3.05;;;;;;;;;;4988218;28;20543;-68
2022/06/07 03:22:40;;;;;;;4.88;3.03;;;;;;;;;;4989700;28;20025;-71
2022/06/07 03:25:07;;;;;;;4.47;2.67;;;;;;;;;;4989233;28;20451;-68
2022/06/07 03:27:35;;;;;;;6.25;3.00;;;;;;;;;;4989599;28;20441;-69
2022/06/07 03:30:00;;;;;;;4.60;2.55;;;;;;;;;;4989183;28;20335;-68
2022/06/07 03:32:25;;;;;;;5.03;2.95;;;;;;;;;;5004404;28;20043;-68
2022/06/07 03:34:52;;;;;;;4.88;2.60;;;;;;;;;;4990291;28;20436;-68
2022/06/07 03:37:17;;;;;;;5.28;2.95;;;;;;;;;;4987238;28;20317;-69
2022/06/07 03:39:43;;;;;;;3.22;2.33;;;;;;;;;;4987932;28;20347;-69
2022/06/07 03:42:08;;;;;;;6.00;2.75;;;;;;;;;;4989330;28;20440;-68
2022/06/07 03:44:34;;;;;;;3.50;2.45;;;;;;;;;;4990519;28;20387;-69
2022/06/07 03:46:59;;;;;;;4.25;2.75;;;;;;;;;;4989050;28;20171;-68
2022/06/07 03:49:25;;;;;;;5.15;3.20;;;;;;;;;;4988629;28;20128;-68
2022/06/07 03:51:51;;;;;;;4.93;2.80;;;;;;;;;;4989256;28;20451;-69
2022/06/07 03:54:16;;;;;;;5.68;3.05;;;;;;;;;;4987697;28;20348;-69
2022/06/07 03:56:41;;;;;;;4.45;2.80;;;;;;;;;;4989166;28;20324;-68
2022/06/07 03:59:07;;;;;;;5.28;3.10;;;;;;;;;;4987503;28;20440;-69
2022/06/07 04:01:32;;;;;;;5.47;2.97;;;;;;;;;;4989568;28;20343;-70
2022/06/07 04:04:06;;;;;;;4.72;2.60;;;;;;;;;;4989694;28;20608;-68
2022/06/07 04:06:35;;;;;;;5.38;2.88;;;;;;;;;;4987808;28;20028;-69
2022/06/07 04:09:00;;;;;;;5.53;3.30;;;;;;;;;;4987937;28;20444;-69
2022/06/07 04:11:27;;;;;;;4.82;3.13;;;;;;;;;;4987454;28;20509;-69
2022/06/07 04:13:54;;;;;;;4.03;2.55;;;;;;;;;;4989818;28;20431;-68
2022/06/07 04:16:22;;;;;;;4.05;2.85;;;;;;;;;;4987120;28;20585;-70
2022/06/07 04:18:47;;;;;;;4.47;2.70;;;;;;;;;;4987699;28;20490;-69
2022/06/07 04:21:13;;;;;;;5.13;2.90;;;;;;;;;;4987517;28;20446;-72
2022/06/07 04:23:39;;;;;;;4.85;2.58;;;;;;;;;;4987220;28;20356;-69
2022/06/07 04:26:10;;;;;;;4.13;2.55;;;;;;;;;;4990064;28;20319;-69
2022/06/07 04:28:36;;;;;;;4.00;2.83;;;;;;;;;;4987212;28;20470;-68
2022/06/07 04:31:02;;;;;;;4.35;2.78;;;;;;;;;;4988616;28;20464;-68
2022/06/07 04:33:27;;;;;;;3.72;2.63;;;;;;;;;;4970813;28;20510;-69
2022/06/07 04:35:53;;;;;;;3.92;2.75;;;;;;;;;;4988707;28;20320;-69
2022/06/07 04:38:18;;;;;;;4.90;2.53;;;;;;;;;;4987264;28;20440;-68
2022/06/07 04:40:44;;;;;;;5.35;2.40;;;;;;;;;;4987887;28;20424;-69
2022/06/07 04:43:10;;;;;;;6.20;2.80;;;;;;;;;;4987099;28;20454;-69
2022/06/07 04:45:37;;;;;;;4.47;2.90;;;;;;;;;;4989068;28;20443;-68
2022/06/07 04:48:04;;;;;;;4.60;2.75;;;;;;;;;;4988693;28;20440;-68
2022/06/07 04:50:29;;;;;;;3.75;2.90;;;;;;;;;;4991613;28;20371;-68
2022/06/07 04:52:55;;;;;;;6.50;3.55;;;;;;;;;;4990950;28;20320;-68
2022/06/07 04:55:20;;;;;;;4.47;2.70;;;;;;;;;;4991869;28;20053;-69
2022/06/07 04:57:46;;;;;;;5.18;2.80;;;;;;;;;;4991620;28;20432;-68
2022/06/07 05:00:14;;;;;;;5.38;2.92;;;;;;;;;;4990761;28;20431;-68
2022/06/07 05:02:41;;;;;;;4.28;3.05;;;;;;;;;;4992220;28;20371;-68
2022/06/07 05:05:07;;;;;;;5.30;3.00;;;;;;;;;;4992496;28;20440;-68
2022/06/07 05:07:33;;;;;;;4.15;2.70;;;;;;;;;;4991842;28;20326;-68
2022/06/07 05:09:58;;;;;;;4.47;2.65;;;;;;;;;;4991411;28;20412;-69
2022/06/07 05:12:23;;;;;;;3.65;2.80;;;;;;;;;;4991654;28;20332;-68
2022/06/07 05:14:49;;;;;;;3.63;2.47;;;;;;;;;;4992872;28;20457;-68
2022/06/07 05:17:15;;;;;;;4.03;2.58;;;;;;;;;;4993103;28;20408;-68
2022/06/07 05:19:40;;;;;;;4.30;3.05;;;;;;;;;;4993783;28;20434;-68
2022/06/07 05:22:06;;;;;;;4.22;2.50;;;;;;;;;;4993197;28;20101;-69
2022/06/07 05:24:32;;;;;;;3.78;2.47;;;;;;;;;;4990304;28;20506;-68
2022/06/07 05:27:03;;;;;;;3.65;2.28;;;;;;;;;;4992449;28;20531;-68
2022/06/07 05:29:38;;;;;;;5.38;3.00;;;;;;;;;;4989809;28;20471;-68
2022/06/07 05:32:04;;;;;;;9.98;2.75;;;;;;;;;;4990487;28;20052;-68
2022/06/07 05:34:29;;;;;;;5.05;3.05;;;;;;;;;;4991335;28;20440;-68
2022/06/07 05:36:54;;;;;;;5.18;2.75;;;;;;;;;;4992049;28;20443;-68
2022/06/07 05:39:26;;;;;;;4.80;2.70;;;;;;;;;;4990048;28;20324;-68
2022/06/07 05:41:52;;;;;;;3.47;2.42;;;;;;;;;;4991012;28;20036;-68
2022/06/07 05:44:17;;;;;;;4.03;2.55;;;;;;;;;;4990146;28;20025;-69
2022/06/07 05:46:43;;;;;;;4.38;2.42;;;;;;;;;;4991163;28;20508;-68
2022/06/07 05:49:09;;;;;;;5.45;2.72;;;;;;;;;;4988966;28;20510;-68
2022/06/07 05:51:35;;;;;;;4.50;2.50;;;;;;;;;;4989758;28;20332;-68
2022/06/07 05:54:01;;;;;;;3.80;2.35;;;;;;;;;;5005759;28;20347;-68
2022/06/07 05:56:26;;;;;;;4.20;2.85;;;;;;;;;;4990955;28;20359;-69
2022/06/07 05:58:52;;;;;;;4.25;3.00;;;;;;;;;;4991927;28;20551;-68
2022/06/07 06:01:17;;;;;;;3.75;2.70;;;;;;;;;;4989478;28;20375;-68
2022/06/07 06:03:43;;;;;;;4.63;2.95;;;;;;;;;;4992128;28;20396;-68
2022/06/07 06:06:10;;;;;;;4.75;2.60;;;;;;;;;;4992003;28;20471;-68
2022/06/07 06:11:21;;;;;;;3.35;2.25;;;;;;;;;;4990131;28;20506;-68
2022/06/07 06:13:47;;;;;;;4.20;2.45;;;;;;;;;;4991030;28;20336;-68
2022/06/07 06:16:18;;;;;;;3.90;2.53;;;;;;;;;;4991896;28;20379;-68
2022/06/07 06:18:45;;;;;;;3.80;2.35;;;;;;;;;;4989212;28;20145;-68
2022/06/07 06:21:10;;;;;;;3.92;2.28;;;;;;;;;;4990163;28;20356;-68
2022/06/07 06:23:36;;;;;;;3.50;2.53;;;;;;;;;;4990093;28;20320;-68
2022/06/07 06:26:06;;;;;;;3.63;2.20;;;;;;;;;;4988960;28;20414;-68
2022/06/07 06:28:31;;;;;;;2.42;1.95;;;;;;;;;;4990557;28;20449;-68
2022/06/07 06:31:01;;;;;;;4.38;2.70;;;;;;;;;;5005392;28;20390;-68
2022/06/07 06:33:27;;;;;;;5.78;2.80;;;;;;;;;;4990709;28;20326;-68
2022/06/07 06:35:54;;;;;;;5.15;2.25;;;;;;;;;;4989200;28;20366;-68
2022/06/07 06:38:20;;;;;;;3.45;2.42;;;;;;;;;;4989424;28;20409;-68
2022/06/07 06:40:46;;;;;;;4.90;2.78;;;;;;;;;;4988349;28;20431;-68
2022/06/07 06:43:13;;;;;;;3.90;2.28;;;;;;;;;;4990837;28;20354;-68
2022/06/07 06:45:39;;;;;;;6.38;3.05;;;;;;;;;;4990120;28;20336;-68
2022/06/07 06:48:06;;;;;;;5.03;3.15;;;;;;;;;;4990214;28;20363;-67
2022/06/07 06:50:32;;;;;;;3.45;2.50;;;;;;;;;;4987988;28;20080;-68
2022/06/07 06:52:57;;;;;;;4.18;2.58;;;;;;;;;;4989234;28;20424;-68
2022/06/07 06:55:22;;;;;;;3.47;2.22;;;;;;;;;;4990169;28;20442;-72
2022/06/07 06:57:49;;;;;;;4.32;2.58;;;;;;;;;;4990512;28;20170;-67
2022/06/07 07:00:15;;;;;;;4.40;2.65;;;;;;;;;;5004812;28;20366;-68
2022/06/07 07:02:41;;;;;;;3.88;2.83;;;;;;;;;;4989936;28;20432;-67
2022/06/07 07:05:06;;;;;;;3.83;2.70;;;;;;;;;;4988247;28;20404;-68
2022/06/07 07:07:32;;;;;;;4.72;3.22;;;;;;;;;;4989614;28;20325;-67
2022/06/07 07:09:57;;;;;;;5.25;2.60;;;;;;;;;;4989422;28;20432;-68
2022/06/07 07:12:23;;;;;;;4.85;2.60;;;;;;;;;;4989919;28;20406;-68
2022/06/07 07:14:48;;;;;;;3.20;2.00;;;;;;;;;;4987815;28;20416;-67
2022/06/07 07:17:14;;;;;;;3.50;2.10;;;;;;;;;;4989670;28;20423;-68
2022/06/07 07:19:41;;;;;;;4.25;2.50;;;;;;;;;;4987912;28;20434;-69
2022/06/07 07:22:06;;;;;;;5.20;2.53;;;;;;;;;;4989558;28;20438;-67
2022/06/07 07:24:32;;;;;;;5.18;2.60;;;;;;;;;;4988331;28;20427;-68
2022/06/07 07:26:58;;;;;;;3.10;2.25;;;;;;;;;;4989927;28;20134;-68
2022/06/07 07:29:24;;;;;;;5.40;3.05;;;;;;;;;;4989510;28;20344;-68
2022/06/07 07:31:49;;;;;;;4.03;2.55;;;;;;;;;;5004229;28;20032;-68
2022/06/07 07:34:16;;;;;;;4.20;2.35;;;;;;;;;;4989675;28;20406;-68
2022/06/07 07:36:44;;;;;;;4.20;2.40;;;;;;;;;;4989390;28;20428;-68
2022/06/07 07:39:10;;;;;;;4.60;2.92;;;;;;;;;;4987945;28;20366;-68
2022/06/07 07:41:37;;;;;;;3.35;2.42;;;;;;;;;;4987700;28;20032;-69
2022/06/07 07:44:05;;;;;;;3.58;1.90;;;;;;;;;;4989112;28;20467;-68
2022/06/07 07:46:33;;;;;;;5.15;2.40;;;;;;;;;;4987722;28;20385;-68
2022/06/07 07:48:58;;;;;;;2.78;2.17;;;;;;;;;;4970911;28;20551;-69
2022/06/07 07:51:26;;;;;;;4.07;2.45;;;;;;;;;;4989393;28;20486;-67
2022/06/07 07:53:53;;;;;;;4.90;2.47;;;;;;;;;;4989441;28;20557;-68
2022/06/07 07:56:19;;;;;;;5.55;2.70;;;;;;;;;;4989053;28;20402;-69
2022/06/07 07:58:45;;;;;;;2.47;1.85;;;;;;;;;;4988268;28;20431;-68
2022/06/07 08:01:13;;;;;;;2.92;2.08;;;;;;;;;;4988014;28;20339;-69
2022/06/07 08:03:39;;;;;;;4.47;2.35;;;;;;;;;;4989251;28;20294;-69
2022/06/07 08:06:06;;;;;;;3.63;2.35;;;;;;;;;;4987753;28;20371;-67
2022/06/07 08:08:33;;;;;;;3.95;1.92;;;;;;;;;;4989391;28;20344;-68
2022/06/07 08:10:58;;;;;;;3.30;2.40;;;;;;;;;;4987602;28;20447;-68
2022/06/07 08:13:23;;;;;;;3.97;2.20;;;;;;;;;;4989728;28;20323;-68
2022/06/07 08:15:49;;;;;;;4.63;2.08;;;;;;;;;;4988649;28;20499;-68
2022/06/07 08:18:14;;;;;;;3.47;2.03;;;;;;;;;;4988964;28;20087;-68
2022/06/07 08:20:39;;;;;;;3.75;2.15;;;;;;;;;;4989757;28;20025;-68
2022/06/07 08:23:07;;;;;;;3.47;2.03;;;;;;;;;;4990585;28;20041;-68
2022/06/07 08:25:33;;;;;;;3.70;1.92;;;;;;;;;;4992529;28;20025;-69
2022/06/07 08:27:58;;;;;;;3.15;2.30;;;;;;;;;;4992581;28;20447;-69
2022/06/07 08:30:24;;;;;;;2.63;2.00;;;;;;;;;;4991384;28;20440;-68
2022/06/07 08:32:49;;;;;;;2.30;1.65;;;;;;;;;;4993015;28;20454;-69
2022/06/07 08:38:02;;;;;;;3.63;2.30;;;;;;;;;;4992177;28;20359;-68
2022/06/07 08:40:33;;;;;;;2.58;2.03;;;;;;;;;;4991194;28;20428;-68
2022/06/07 08:43:00;;;;;;;3.80;2.17;;;;;;;;;;4992614;28;20317;-68
2022/06/07 08:45:38;;;;;;;3.25;2.00;;;;;;;;;;4991746;28;20115;-68
2022/06/07 08:48:07;;;;;;;2.93;1.77;;;;;;;;;;4992789;28;20048;-67
2022/06/07 08:50:33;;;;;;;;;;;;;;;;;;4990392;28;20134;-68
2022/06/07 08:53:25;;;;;;;3.33;2.25;;;;;;;;;;4991672;28;20328;-68
2022/06/07 08:55:54;;;;;;;2.97;1.85;;;;;;;;;;5000100;28;20451;-67
2022/06/07 08:58:20;;;;;;;2.80;1.92;;;;;;;;;;4990461;28;20406;-68
2022/06/07 09:00:51;;;;;;;2.63;1.98;;;;;;;;;;4992422;28;20099;-67
2022/06/07 09:04:00;;;;;;;2.85;2.10;;;;;;;;;;4991950;28;20047;-68
2022/06/07 09:06:33;;;;;;;3.28;2.10;;;;;;;;;;4949944;28;20445;-68
2022/06/07 09:08:59;;;;;;;2.75;1.75;;;;;;;;;;4988319;28;20340;-68
2022/06/07 09:14:11;;;;;;;2.65;2.00;;;;;;;;;;4992234;28;20345;-67
2022/06/07 09:16:42;;;;;;;3.67;2.10;;;;;;;;;;4989924;28;20344;-67
2022/06/07 09:19:11;;;;;;;3.17;1.88;;;;;;;;;;4990254;28;20348;-68
2022/06/07 09:21:40;;;;;;;3.45;1.90;;;;;;;;;;4993322;28;20367;-67
2022/06/07 09:24:11;;;;;;;2.45;1.90;;;;;;;;;;4990685;28;20025;-68
2022/06/07 09:26:41;;;;;;;2.20;1.85;;;;;;;;;;4990654;28;20382;-67
2022/06/07 09:29:16;;;;;;;3.88;2.15;;;;;;;;;;4991371;28;20343;-68
2022/06/07 09:31:43;;;;;;;2.47;1.73;;;;;;;;;;4991721;28;20515;-68
2022/06/07 09:34:17;;;;;;;1.90;1.70;;;;;;;;;;4989240;28;20533;-68
2022/06/07 09:36:47;;;;;;;2.83;1.80;;;;;;;;;;4990256;28;20473;-67
2022/06/07 09:39:20;;;;;;;2.42;1.60;;;;;;;;;;4990364;28;20467;-67
2022/06/07 09:41:53;;;;;;;3.30;2.20;;;;;;;;;;4989662;28;20320;-68
2022/06/07 09:44:24;;;;;;;4.97;2.33;;;;;;;;;;4990508;28;20435;-68
2022/06/07 09:47:00;;;;;;;2.33;1.67;;;;;;;;;;4991612;28;20371;-68
2022/06/07 09:49:27;;;;;;;3.58;1.90;;;;;;;;;;4990384;28;20345;-67
2022/06/07 09:51:53;;;;;;;3.55;2.00;;;;;;;;;;4991565;28;20029;-68
2022/06/07 09:54:21;;;;;;;2.92;1.67;;;;;;;;;;4991324;28;20021;-67
2022/06/07 09:57:21;;;;;;;2.63;2.00;;;;;;;;;;4989918;28;20102;-67
2022/06/07 10:00:18;;;;;;;3.35;2.10;;;;;;;;;;4991391;28;20340;-69
2022/06/07 10:02:57;;;;;;;3.55;2.08;;;;;;;;;;4993700;28;20045;-67
2022/06/07 10:05:35;;;;;;;2.63;2.15;;;;;;;;;;4992739;28;20029;-67
2022/06/07 10:08:00;;;;;;;;;;;;;;;;;;4989830;28;20443;-67
2022/06/07 10:10:40;;;;;;;2.53;1.70;;;;;;;;;;4990742;28;20308;-67
2022/06/07 10:13:27;;;;;;;4.30;1.52;;;;;;;;;;4990092;28;20331;-68
2022/06/07 10:16:04;;;;;;;3.08;1.85;;;;;;;;;;4992176;28;20045;-67
2022/06/07 10:19:02;;;;;;;2.85;2.00;;;;;;;;;;4989312;28;20056;-68
2022/06/07 10:22:24;;;;;;;2.60;1.90;;;;;;;;;;4990429;28;20356;-67
2022/06/07 10:25:11;;;;;;;3.38;1.92;;;;;;;;;;4948623;28;20409;-68
2022/06/07 10:27:43;;;;;;;2.53;1.80;;;;;;;;;;4949173;28;20034;-68
2022/06/07 10:30:15;;;;;;;3.10;2.13;;;;;;;;;;4975448;28;20438;-67
2022/06/07 10:32:58;;;;;;;3.20;1.92;;;;;;;;;;4990888;28;20079;-67
2022/06/07 10:35:46;;;;;;;2.15;1.45;;;;;;;;;;4989038;28;20423;-67
2022/06/07 10:38:26;;;;;;;2.53;2.03;;;;;;;;;;4990246;28;20037;-68
2022/06/07 10:41:19;;;;;;;2.35;1.70;;;;;;;;;;4990012;28;20507;-68
2022/06/07 10:44:09;;;;;;;3.30;1.75;;;;;;;;;;4989334;28;20408;-67
2022/06/07 10:46:36;;;;;;;4.55;2.10;;;;;;;;;;4988579;28;20432;-67
2022/06/07 10:49:21;;;;;;;2.80;1.60;;;;;;;;;;4989761;28;20459;-69
2022/06/07 10:54:53;;;;;;;2.58;1.50;;;;;;;;;;4991976;28;20467;-67
2022/06/07 10:57:27;;;;;;;3.22;1.67;;;;;;;;;;4988784;28;20371;-67
2022/06/07 10:59:52;;;;;;;2.75;1.75;;;;;;;;;;4990969;28;20187;-68
2022/06/07 11:02:53;;;;;;;2.70;1.75;;;;;;;;;;4990254;28;20442;-65
2022/06/07 11:11:35;;;;;;;1.60;1.40;;;;;;;;;;4988909;28;20060;-65
2022/06/07 11:14:16;;;;;;;2.10;1.58;;;;;;;;;;4989822;28;20420;-65
2022/06/07 11:17:09;;;;;;;2.03;1.50;;;;;;;;;;4990149;28;20324;-65
2022/06/07 11:19:34;;;;;;;2.55;1.70;;;;;;;;;;4989447;28;20466;-66
2022/06/07 11:22:04;;;;;;;2.53;1.67;;;;;;;;;;4988093;28;20440;-65
2022/06/07 11:24:33;;;;;;;1.60;1.48;;;;;;;;;;4987841;28;20044;-65
2022/06/07 11:27:01;;;;;;;2.53;1.55;;;;;;;;;;4989001;28;20025;-66
2022/06/07 11:29:32;;;;;;;3.53;1.85;;;;;;;;;;4988616;28;20443;-66
2022/06/07 11:31:58;;;;;;;2.80;1.60;;;;;;;;;;4987924;28;20505;-65
2022/06/07 11:34:33;;;;;;;2.08;1.55;;;;;;;;;;4987799;28;20372;-65
2022/06/07 11:37:08;;;;;;;3.50;1.67;;;;;;;;;;4987674;28;20412;-65
2022/06/07 11:39:39;;;;;;;4.07;1.70;;;;;;;;;;4989041;28;20421;-66
2022/06/07 11:42:07;;;;;;;2.03;1.58;;;;;;;;;;4989210;28;20440;-65
2022/06/07 11:44:39;;;;;;;2.63;1.50;;;;;;;;;;4991723;28;20040;-65
2022/06/07 11:47:07;;;;;;;1.88;1.38;;;;;;;;;;4988182;28;20409;-65
2022/06/07 11:49:39;;;;;;;2.43;1.50;;;;;;;;;;4646514;28;10001174;-65
2022/06/07 11:52:13;;;;;;;2.55;1.38;;;;;;;;;;5000430;28;20319;-65
2022/06/07 11:54:45;;;;;;;2.20;1.50;;;;;;;;;;4989807;28;20442;-65
2022/06/07 11:57:23;;;;;;;2.03;1.50;;;;;;;;;;4988786;28;20344;-66
2022/06/07 11:59:51;;;;;;;1.73;1.30;;;;;;;;;;4990617;28;20615;-65
2022/06/07 12:02:16;;;;;;;1.60;1.30;;;;;;;;;;4988879;28;20629;-65
2022/06/07 12:04:41;;;;;;;2.70;1.50;;;;;;;;;;4989049;28;20051;-65
2022/06/07 12:07:07;;;;;;;2.00;1.30;;;;;;;;;;4989044;28;20466;-66
2022/06/07 12:09:34;;;;;;;1.95;1.58;;;;;;;;;;4989085;28;20420;-66
2022/06/07 12:12:14;;;;;;;2.10;1.40;;;;;;;;;;4988975;28;20530;-66
2022/06/07 12:14:44;;;;;;;1.30;1.02;;;;;;;;;;4988126;28;20029;-66
2022/06/07 12:17:24;;;;;;;1.85;1.15;;;;;;;;;;4988660;28;20060;-65
2022/06/07 12:19:50;;;;;;;3.00;1.83;;;;;;;;;;4987532;28;20536;-67
2022/06/07 12:22:19;;;;;;;2.33;1.52;;;;;;;;;;4988179;28;20043;-66
2022/06/07 12:25:01;;;;;;;;;;;;;;;;;;4988999;28;20447;-66
2022/06/07 12:27:30;;;;;;;1.30;1.20;;;;;;;;;;4987320;28;19932;-65
2022/06/07 12:30:02;;;;;;;1.88;1.27;;;;;;;;;;4987359;28;20436;-67
2022/06/07 12:32:34;;;;;;;2.33;1.30;;;;;;;;;;4987103;28;20333;-66
2022/06/07 12:35:13;;;;;;;2.45;1.08;;;;;;;;;;4988051;28;20082;-66
2022/06/07 12:37:39;;;;;;;2.28;1.00;;;;;;;;;;4987622;28;20999;-65
2022/06/07 12:40:21;;;;;;;2.10;1.60;;;;;;;;;;4988959;28;20347;-66
2022/06/07 12:42:47;;;;;;;1.80;1.40;;;;;;;;;;4987658;28;20539;-66
2022/06/07 12:45:18;;;;;;;1.48;1.15;;;;;;;;;;4989049;28;20451;-66
2022/06/07 12:47:44;;;;;;;2.10;1.23;;;;;;;;;;4988891;28;20482;-67
2022/06/07 12:50:32;;;;;;;2.08;1.45;;;;;;;;;;4988238;28;20442;-65
2022/06/07 12:52:58;;;;;;;2.28;1.40;;;;;;;;;;4988366;28;20383;-65
2022/06/07 12:55:26;;;;;;;2.30;1.33;;;;;;;;;;4986926;28;20033;-66
2022/06/07 12:57:56;;;;;;;2.97;1.20;;;;;;;;;;4986838;28;20434;-66
2022/06/07 13:00:29;;;;;;;1.77;1.42;;;;;;;;;;4987027;28;20439;-66
2022/06/07 13:03:02;;;;;;;1.92;1.38;;;;;;;;;;4987191;28;20395;-66
2022/06/07 13:05:27;;;;;;;1.85;1.30;;;;;;;;;;4988295;28;20347;-66
2022/06/07 13:07:55;;;;;;;1.85;1.20;;;;;;;;;;4988861;28;20315;-66
2022/06/07 13:10:30;;;;;;;1.83;1.48;;;;;;;;;;4988785;28;20332;-68
2022/06/07 13:12:58;;;;;;;2.13;1.45;;;;;;;;;;4991556;28;20447;-66
2022/06/07 13:15:26;;;;;;;1.40;1.10;;;;;;;;;;4989496;28;20406;-66
2022/06/07 13:17:56;;;;;;;;;;;;;;;;;;4991706;28;20344;-66
2022/06/07 13:20:43;;;;;;;2.15;1.48;;;;;;;;;;4992164;28;20345;-65
2022/06/07 13:23:31;;;;;;;1.80;1.30;;;;;;;;;;4990408;28;20427;-66
2022/06/07 13:26:23;;;;;;;1.85;1.25;;;;;;;;;;4990558;28;20490;-66
2022/06/07 13:29:12;;;;;;;1.80;1.30;;;;;;;;;;4992013;28;20451;-66
2022/06/07 13:31:49;;;;;;;1.98;1.42;;;;;;;;;;4991448;28;20535;-65
2022/06/07 13:34:29;;;;;;;1.15;1.00;;;;;;;;;;4993088;28;20386;-65
2022/06/07 13:37:07;;;;;;;1.73;1.50;;;;;;;;;;4990446;28;20344;-65
2022/06/07 13:39:36;;;;;;;1.75;1.30;;;;;;;;;;4990303;28;20344;-65
2022/06/07 13:42:21;;;;;;;1.30;1.20;;;;;;;;;;4990026;28;20428;-65
2022/06/07 13:45:18;;;;;;;1.75;1.42;;;;;;;;;;4992188;28;20032;-65
2022/06/07 13:48:09;;;;;;;2.70;1.52;;;;;;;;;;4994731;28;20503;-66
2022/06/07 13:53:58;;;;;;;2.08;1.30;;;;;;;;;;4991008;28;20387;-65
2022/06/07 13:56:24;;;;;;;1.75;1.20;;;;;;;;;;4991055;28;20447;-67
2022/06/07 13:58:52;;;;;;;1.98;1.23;;;;;;;;;;4992057;28;20349;-65
2022/06/07 14:01:23;;;;;;;2.00;1.38;;;;;;;;;;4991028;28;20379;-65
2022/06/07 14:03:53;;;;;;;1.75;1.45;;;;;;;;;;4989677;28;20418;-65
2022/06/07 14:06:31;;;;;;;1.67;1.40;;;;;;;;;;4991068;28;20102;-65
2022/06/07 14:08:59;;;;;;;1.42;1.15;;;;;;;;;;4990752;28;20309;-65
2022/06/07 14:11:24;;;;;;;1.77;1.15;;;;;;;;;;4989631;28;20468;-67
2022/06/07 14:13:50;;;;;;;1.58;1.33;;;;;;;;;;4989421;28;20112;-65
2022/06/07 14:16:22;;;;;;;2.92;1.55;;;;;;;;;;4990357;28;20033;-66
2022/06/07 14:18:47;;;;;;;1.77;1.30;;;;;;;;;;4991362;28;20443;-65
2022/06/07 14:21:13;;;;;;;1.88;1.42;;;;;;;;;;4992303;28;20493;-65
2022/06/07 14:23:38;;;;;;;1.92;1.50;;;;;;;;;;4990624;28;20111;-67
2022/06/07 14:26:04;;;;;;;1.45;1.30;;;;;;;;;;4985310;28;20436;-65
2022/06/07 14:28:29;;;;;;;1.90;1.30;;;;;;;;;;4969054;28;20532;-66
2022/06/07 14:30:55;;;;;;;3.00;1.67;;;;;;;;;;4987339;28;20032;-65
2022/06/07 14:33:22;;;;;;;1.67;1.02;;;;;;;;;;4990751;28;20416;-65
2022/06/07 14:35:48;;;;;;;2.15;1.70;;;;;;;;;;4986210;28;20356;-66
2022/06/07 14:38:16;;;;;;;4.90;1.70;;;;;;;;;;4989038;28;20048;-67
2022/06/07 14:40:43;;;;;;;4.03;1.60;;;;;;;;;;4990178;28;20444;-66
2022/06/07 14:43:12;;;;;;;4.07;1.70;;;;;;;;;;4991802;28;20366;-66
2022/06/07 14:45:41;;;;;;;4.45;1.55;;;;;;;;;;4990447;28;20374;-65
2022/06/07 14:48:07;;;;;;;1.50;1.35;;;;;;;;;;4990882;28;20107;-67
2022/06/07 14:50:33;;;;;;;1.40;1.30;;;;;;;;;;4988208;28;20488;-66
2022/06/07 14:52:58;;;;;;;11.02;1.63;;;;;;;;;;4988562;28;20478;-67
2022/06/07 14:55:25;;;;;;;1.55;1.45;;;;;;;;;;4988472;28;20471;-65
2022/06/07 14:57:52;;;;;;;5.45;1.75;;;;;;;;;;4988516;28;20025;-66
2022/06/07 15:00:21;;;;;;;2.00;1.40;;;;;;;;;;4988186;28;20578;-66
2022/06/07 15:02:51;;;;;;;2.85;1.70;;;;;;;;;;4988696;28;20395;-65
2022/06/07 15:05:20;;;;;;;2.35;1.55;;;;;;;;;;4989592;28;20352;-66
2022/06/07 15:07:58;;;;;;;1.95;1.40;;;;;;;;;;4989998;28;20021;-66
2022/06/07 15:10:28;;;;;;;2.55;1.52;;;;;;;;;;4988324;28;20032;-67
2022/06/07 15:12:54;;;;;;;2.85;1.38;;;;;;;;;;4990855;28;20404;-66
2022/06/07 15:15:21;;;;;;;2.08;1.52;;;;;;;;;;4988269;28;20359;-69
2022/06/07 15:17:57;;;;;;;5.47;1.20;;;;;;;;;;4988489;28;20115;-68
2022/06/07 15:20:29;;;;;;;1.60;1.30;;;;;;;;;;4989694;28;20420;-68
2022/06/07 15:22:55;;;;;;;3.13;1.90;;;;;;;;;;4990066;28;20041;-70